createdAt,value
2017-01-30T00:00:08.945Z,0
2017-01-30T00:01:17.989Z,0
2017-01-30T00:02:27.698Z,0
2017-01-30T00:03:36.665Z,0
2017-01-30T00:04:46.032Z,0
2017-01-30T00:05:55.189Z,0
2017-01-30T00:07:04.639Z,0
2017-01-30T00:08:13.624Z,0
2017-01-30T00:09:22.580Z,0
2017-01-30T00:10:31.943Z,0
2017-01-30T00:11:40.903Z,0
2017-01-30T00:12:49.861Z,0
2017-01-30T00:13:58.822Z,0
2017-01-30T00:15:07.863Z,0
2017-01-30T00:16:17.235Z,0
2017-01-30T00:17:26.195Z,0
2017-01-30T00:18:35.156Z,0
2017-01-30T00:19:44.109Z,0
2017-01-30T00:20:53.068Z,0
2017-01-30T00:22:02.032Z,0
2017-01-30T00:23:11.962Z,0
2017-01-30T00:24:21.151Z,0
2017-01-30T00:25:30.246Z,0
2017-01-30T00:26:39.346Z,0
2017-01-30T00:27:49.632Z,0
2017-01-30T00:28:59.883Z,0
2017-01-30T00:30:09.953Z,0
2017-01-30T00:31:19.022Z,0
2017-01-30T00:32:27.985Z,0
2017-01-30T00:33:37.513Z,0
2017-01-30T00:34:46.628Z,0
2017-01-30T00:35:56.909Z,0
2017-01-30T00:37:05.868Z,0
2017-01-30T00:38:15.866Z,0
2017-01-30T00:39:24.827Z,0
2017-01-30T00:40:33.793Z,0
2017-01-30T00:41:42.759Z,0
2017-01-30T00:42:51.714Z,0
2017-01-30T00:44:01.062Z,0
2017-01-30T00:45:17.453Z,0
2017-01-30T00:46:34.331Z,0
2017-01-30T00:47:48.445Z,0
2017-01-30T00:49:06.404Z,0
2017-01-30T00:50:25.886Z,0
2017-01-30T00:51:48.735Z,0
2017-01-30T00:53:11.443Z,0
2017-01-30T00:54:35.258Z,0
2017-01-30T00:55:53.197Z,0
2017-01-30T00:57:17.471Z,0
2017-01-30T00:58:41.577Z,0
2017-01-30T01:00:02.927Z,0
2017-01-30T01:01:28.040Z,0
2017-01-30T01:02:43.160Z,0
2017-01-30T01:04:07.720Z,0
2017-01-30T01:05:19.797Z,0
2017-01-30T01:06:36.407Z,0
2017-01-30T01:07:45.407Z,0
2017-01-30T01:08:56.838Z,0
2017-01-30T01:10:10.767Z,0
2017-01-30T01:11:24.108Z,0
2017-01-30T01:12:47.746Z,0
2017-01-30T01:14:09.363Z,0
2017-01-30T01:15:25.949Z,0
2017-01-30T01:16:45.347Z,0
2017-01-30T01:18:06.790Z,0
2017-01-30T01:19:31.876Z,0
2017-01-30T01:20:50.597Z,0
2017-01-30T01:22:12.059Z,0
2017-01-30T01:23:26.719Z,0
2017-01-30T01:24:37.541Z,0
2017-01-30T01:25:49.108Z,0
2017-01-30T01:26:58.062Z,0
2017-01-30T01:28:08.550Z,0
2017-01-30T01:29:21.872Z,0
2017-01-30T01:30:41.607Z,0
2017-01-30T01:31:51.590Z,0
2017-01-30T01:33:02.519Z,0
2017-01-30T01:34:15.182Z,0
2017-01-30T01:35:26.329Z,0
2017-01-30T01:36:37.775Z,0
2017-01-30T01:37:51.016Z,0
2017-01-30T01:39:06.431Z,0
2017-01-30T01:40:18.296Z,0
2017-01-30T01:41:27.261Z,0
2017-01-30T01:42:36.219Z,0
2017-01-30T01:43:45.260Z,0
2017-01-30T01:44:54.214Z,0
2017-01-30T01:46:03.169Z,0
2017-01-30T01:47:12.219Z,0
2017-01-30T01:48:21.181Z,0
2017-01-30T01:49:30.143Z,0
2017-01-30T01:50:39.100Z,0
2017-01-30T01:51:48.064Z,0
2017-01-30T01:52:57.026Z,0
2017-01-30T01:54:06.393Z,0
2017-01-30T01:55:15.351Z,0
2017-01-30T01:56:24.719Z,0
2017-01-30T01:57:33.760Z,0
2017-01-30T01:58:42.715Z,0
2017-01-30T01:59:51.672Z,0
2017-01-30T02:01:00.631Z,0
2017-01-30T02:02:09.586Z,0
2017-01-30T02:03:18.640Z,0
2017-01-30T02:04:27.593Z,0
2017-01-30T02:05:36.644Z,0
2017-01-30T02:06:45.605Z,0
2017-01-30T02:07:54.563Z,0
2017-01-30T02:09:03.523Z,0
2017-01-30T02:10:12.472Z,0
2017-01-30T02:11:21.517Z,0
2017-01-30T02:12:30.561Z,0
2017-01-30T02:13:39.509Z,0
2017-01-30T02:14:48.501Z,0
2017-01-30T02:15:57.863Z,0
2017-01-30T02:17:06.821Z,0
2017-01-30T02:18:15.777Z,0
2017-01-30T02:19:24.734Z,0
2017-01-30T02:20:33.692Z,0
2017-01-30T02:21:42.735Z,0
2017-01-30T02:22:51.699Z,0
2017-01-30T02:24:00.654Z,0
2017-01-30T02:25:09.615Z,0
2017-01-30T02:26:18.572Z,0
2017-01-30T02:27:27.536Z,0
2017-01-30T02:28:36.496Z,0
2017-01-30T02:29:45.457Z,0
2017-01-30T02:30:54.412Z,0
2017-01-30T02:32:03.376Z,0
2017-01-30T02:33:12.334Z,0
2017-01-30T02:34:21.383Z,0
2017-01-30T02:35:30.352Z,0
2017-01-30T02:36:39.398Z,0
2017-01-30T02:37:48.355Z,0
2017-01-30T02:38:57.408Z,0
2017-01-30T02:40:06.365Z,0
2017-01-30T02:41:15.412Z,0
2017-01-30T02:42:24.375Z,0
2017-01-30T02:43:33.421Z,0
2017-01-30T02:44:42.380Z,0
2017-01-30T02:45:51.760Z,0
2017-01-30T02:47:00.714Z,0
2017-01-30T02:48:09.669Z,0
2017-01-30T02:49:18.648Z,0
2017-01-30T02:50:27.693Z,0
2017-01-30T02:51:36.660Z,0
2017-01-30T02:52:45.655Z,0
2017-01-30T02:53:54.613Z,0
2017-01-30T02:55:03.576Z,0
2017-01-30T02:56:12.532Z,0
2017-01-30T02:57:21.495Z,0
2017-01-30T02:58:30.577Z,0
2017-01-30T02:59:39.946Z,0
2017-01-30T03:00:49.392Z,0
2017-01-30T03:01:58.450Z,0
2017-01-30T03:03:07.410Z,0
2017-01-30T03:04:16.364Z,0
2017-01-30T03:05:25.417Z,0
2017-01-30T03:06:34.369Z,0
2017-01-30T03:07:43.326Z,0
2017-01-30T03:08:52.283Z,0
2017-01-30T03:10:01.271Z,0
2017-01-30T03:11:10.225Z,0
2017-01-30T03:12:19.185Z,0
2017-01-30T03:13:28.147Z,0
2017-01-30T03:14:37.141Z,0
2017-01-30T03:15:46.099Z,0
2017-01-30T03:16:55.148Z,0
2017-01-30T03:18:04.104Z,0
2017-01-30T03:19:13.068Z,0
2017-01-30T03:20:22.111Z,0
2017-01-30T03:21:31.068Z,0
2017-01-30T03:22:40.021Z,0
2017-01-30T03:23:48.979Z,0
2017-01-30T03:24:57.941Z,0
2017-01-30T03:26:06.900Z,0
2017-01-30T03:27:15.855Z,0
2017-01-30T03:28:24.810Z,0
2017-01-30T03:29:33.772Z,0
2017-01-30T03:30:43.138Z,0
2017-01-30T03:31:56.613Z,0
2017-01-30T03:33:08.538Z,0
2017-01-30T03:34:18.249Z,0
2017-01-30T03:35:32.971Z,0
2017-01-30T03:36:41.928Z,0
2017-01-30T03:37:50.886Z,0
2017-01-30T03:39:00.354Z,0
2017-01-30T03:40:12.634Z,0
2017-01-30T03:41:25.126Z,0
2017-01-30T03:42:36.491Z,0
2017-01-30T03:43:48.256Z,0
2017-01-30T03:44:59.648Z,0
2017-01-30T03:46:11.585Z,0
2017-01-30T03:47:26.443Z,0
2017-01-30T03:48:36.917Z,0
2017-01-30T03:49:51.870Z,0
2017-01-30T03:51:03.772Z,0
2017-01-30T03:52:15.867Z,0
2017-01-30T03:53:31.678Z,0
2017-01-30T03:54:45.050Z,0
2017-01-30T03:55:54.017Z,0
2017-01-30T03:57:04.138Z,0
2017-01-30T03:58:14.062Z,0
2017-01-30T03:59:23.679Z,0
2017-01-30T04:00:34.314Z,0
2017-01-30T04:01:44.141Z,0
2017-01-30T04:02:57.037Z,0
2017-01-30T04:04:06.003Z,0
2017-01-30T04:05:19.925Z,0
2017-01-30T04:06:35.243Z,0
2017-01-30T04:07:47.603Z,0
2017-01-30T04:09:01.757Z,0
2017-01-30T04:10:16.709Z,0
2017-01-30T04:11:31.450Z,0
2017-01-30T04:12:40.498Z,0
2017-01-30T04:13:49.451Z,0
2017-01-30T04:14:58.415Z,0
2017-01-30T04:16:07.374Z,0
2017-01-30T04:17:16.331Z,0
2017-01-30T04:18:25.286Z,0
2017-01-30T04:19:34.249Z,0
2017-01-30T04:20:43.213Z,0
2017-01-30T04:21:52.173Z,0
2017-01-30T04:23:01.237Z,0
2017-01-30T04:24:10.217Z,0
2017-01-30T04:25:19.172Z,0
2017-01-30T04:26:28.537Z,0
2017-01-30T04:27:37.492Z,0
2017-01-30T04:28:46.457Z,0
2017-01-30T04:29:55.420Z,0
2017-01-30T04:31:04.376Z,0
2017-01-30T04:32:13.336Z,0
2017-01-30T04:33:22.383Z,0
2017-01-30T04:34:31.336Z,0
2017-01-30T04:35:40.289Z,0
2017-01-30T04:36:49.243Z,0
2017-01-30T04:37:58.198Z,0
2017-01-30T04:39:07.149Z,0
2017-01-30T04:40:16.107Z,0
2017-01-30T04:41:25.062Z,0
2017-01-30T04:42:34.021Z,0
2017-01-30T04:43:42.986Z,0
2017-01-30T04:44:51.942Z,0
2017-01-30T04:46:00.897Z,0
2017-01-30T04:47:09.852Z,0
2017-01-30T04:48:18.811Z,0
2017-01-30T04:49:28.224Z,0
2017-01-30T04:50:37.180Z,0
2017-01-30T04:51:46.136Z,0
2017-01-30T04:52:55.091Z,0
2017-01-30T04:54:04.461Z,0
2017-01-30T04:55:13.417Z,0
2017-01-30T04:56:22.373Z,0
2017-01-30T04:57:31.331Z,0
2017-01-30T04:58:40.311Z,0
2017-01-30T04:59:49.350Z,0
2017-01-30T05:00:58.398Z,0
2017-01-30T05:02:07.773Z,0
2017-01-30T05:03:16.731Z,0
2017-01-30T05:04:25.775Z,0
2017-01-30T05:05:34.735Z,0
2017-01-30T05:06:43.781Z,0
2017-01-30T05:07:52.824Z,0
2017-01-30T05:09:01.866Z,0
2017-01-30T05:10:10.828Z,0
2017-01-30T05:11:19.779Z,0
2017-01-30T05:12:28.766Z,0
2017-01-30T05:13:37.722Z,0
2017-01-30T05:14:46.680Z,0
2017-01-30T05:15:55.637Z,0
2017-01-30T05:17:04.616Z,0
2017-01-30T05:18:13.657Z,0
2017-01-30T05:19:22.616Z,0
2017-01-30T05:20:31.574Z,0
2017-01-30T05:21:40.533Z,0
2017-01-30T05:22:49.576Z,0
2017-01-30T05:23:58.535Z,0
2017-01-30T05:25:07.492Z,0
2017-01-30T05:26:16.441Z,0
2017-01-30T05:27:25.397Z,0
2017-01-30T05:28:34.349Z,0
2017-01-30T05:29:43.305Z,0
2017-01-30T05:30:52.261Z,0
2017-01-30T05:32:01.219Z,0
2017-01-30T05:33:10.264Z,0
2017-01-30T05:34:19.244Z,0
2017-01-30T05:35:28.200Z,0
2017-01-30T05:36:37.153Z,0
2017-01-30T05:37:46.514Z,0
2017-01-30T05:38:55.470Z,0
2017-01-30T05:40:04.429Z,0
2017-01-30T05:41:13.408Z,0
2017-01-30T05:42:22.364Z,0
2017-01-30T05:43:31.406Z,0
2017-01-30T05:44:40.367Z,0
2017-01-30T05:45:49.324Z,0
2017-01-30T05:46:58.280Z,0
2017-01-30T05:48:07.644Z,0
2017-01-30T05:49:16.687Z,0
2017-01-30T05:50:25.649Z,0
2017-01-30T05:51:34.609Z,0
2017-01-30T05:52:43.569Z,0
2017-01-30T05:53:52.528Z,0
2017-01-30T05:55:01.488Z,0
2017-01-30T05:56:10.448Z,0
2017-01-30T05:57:19.406Z,0
2017-01-30T05:58:28.360Z,0
2017-01-30T05:59:37.329Z,0
2017-01-30T06:00:46.291Z,0
2017-01-30T06:01:55.246Z,0
2017-01-30T06:03:04.299Z,0
2017-01-30T06:04:13.253Z,0
2017-01-30T06:05:22.210Z,0
2017-01-30T06:06:31.248Z,0
2017-01-30T06:07:40.206Z,0
2017-01-30T06:08:49.160Z,0
2017-01-30T06:09:58.247Z,0
2017-01-30T06:11:07.378Z,0
2017-01-30T06:12:16.333Z,0
2017-01-30T06:13:25.302Z,0
2017-01-30T06:14:35.000Z,0
2017-01-30T06:15:43.958Z,0
2017-01-30T06:16:52.914Z,0
2017-01-30T06:18:01.952Z,0
2017-01-30T06:19:10.906Z,0
2017-01-30T06:20:19.863Z,0
2017-01-30T06:21:28.906Z,0
2017-01-30T06:22:37.861Z,0
2017-01-30T06:23:46.816Z,0
2017-01-30T06:24:55.856Z,0
2017-01-30T06:26:04.902Z,0
2017-01-30T06:27:14.278Z,0
2017-01-30T06:28:23.325Z,0
2017-01-30T06:29:32.283Z,0
2017-01-30T06:30:41.238Z,0
2017-01-30T06:31:50.281Z,0
2017-01-30T06:32:59.239Z,0
2017-01-30T06:34:08.201Z,0
2017-01-30T06:35:17.161Z,0
2017-01-30T06:36:26.117Z,0
2017-01-30T06:37:35.082Z,0
2017-01-30T06:38:44.035Z,0
2017-01-30T06:39:53.083Z,0
2017-01-30T06:41:02.121Z,0
2017-01-30T06:42:11.074Z,0
2017-01-30T06:43:20.032Z,0
2017-01-30T06:44:29.073Z,0
2017-01-30T06:45:38.119Z,0
2017-01-30T06:46:47.079Z,0
2017-01-30T06:47:56.034Z,0
2017-01-30T06:49:04.987Z,0
2017-01-30T06:50:14.350Z,0
2017-01-30T06:51:23.301Z,0
2017-01-30T06:52:32.252Z,0
2017-01-30T06:53:41.208Z,0
2017-01-30T06:54:50.261Z,0
2017-01-30T06:55:59.215Z,0
2017-01-30T06:57:08.172Z,0
2017-01-30T06:58:17.132Z,0
2017-01-30T06:59:26.179Z,5
2017-01-30T07:00:35.134Z,5
2017-01-30T07:01:44.093Z,5
2017-01-30T07:02:53.047Z,5
2017-01-30T07:04:02.004Z,5
2017-01-30T07:05:11.049Z,5
2017-01-30T07:06:20.004Z,5
2017-01-30T07:07:28.954Z,5
2017-01-30T07:08:37.910Z,5
2017-01-30T07:09:46.863Z,5
2017-01-30T07:10:55.823Z,5
2017-01-30T07:12:04.777Z,5
2017-01-30T07:13:14.235Z,5
2017-01-30T07:14:23.192Z,5
2017-01-30T07:15:32.178Z,5
2017-01-30T07:16:41.225Z,5
2017-01-30T07:17:50.265Z,5
2017-01-30T07:18:59.651Z,5
2017-01-30T07:20:08.611Z,5
2017-01-30T07:21:17.567Z,5
2017-01-30T07:22:26.522Z,5
2017-01-30T07:23:35.474Z,5
2017-01-30T07:24:44.513Z,5
2017-01-30T07:25:53.463Z,5
2017-01-30T07:27:02.417Z,5
2017-01-30T07:28:11.379Z,10
2017-01-30T07:29:20.430Z,10
2017-01-30T07:30:29.385Z,10
2017-01-30T07:31:38.341Z,10
2017-01-30T07:32:47.295Z,15
2017-01-30T07:33:56.275Z,15
2017-01-30T07:35:06.048Z,15
2017-01-30T07:36:15.007Z,15
2017-01-30T07:37:23.962Z,15
2017-01-30T07:38:32.924Z,15
2017-01-30T07:39:41.878Z,15
2017-01-30T07:40:50.833Z,15
2017-01-30T07:42:00.195Z,15
2017-01-30T07:43:09.151Z,15
2017-01-30T07:44:18.136Z,15
2017-01-30T07:45:27.093Z,15
2017-01-30T07:46:36.046Z,15
2017-01-30T07:47:45.004Z,15
2017-01-30T07:48:53.964Z,15
2017-01-30T07:50:02.920Z,15
2017-01-30T07:51:11.878Z,15
2017-01-30T07:52:20.849Z,15
2017-01-30T07:53:29.804Z,15
2017-01-30T07:54:38.761Z,15
2017-01-30T07:55:47.720Z,20
2017-01-30T07:56:56.674Z,20
2017-01-30T07:58:05.635Z,20
2017-01-30T07:59:14.587Z,20
2017-01-30T08:00:23.540Z,20
2017-01-30T08:01:32.589Z,20
2017-01-30T08:02:41.544Z,20
2017-01-30T08:03:50.503Z,20
2017-01-30T08:04:59.544Z,25
2017-01-30T08:06:08.527Z,30
2017-01-30T08:07:17.493Z,30
2017-01-30T08:08:26.461Z,30
2017-01-30T08:09:35.824Z,30
2017-01-30T08:10:45.127Z,25
2017-01-30T08:11:56.230Z,25
2017-01-30T08:13:07.622Z,25
2017-01-30T08:14:16.575Z,25
2017-01-30T08:15:25.531Z,25
2017-01-30T08:16:34.578Z,20
2017-01-30T08:17:43.530Z,25
2017-01-30T08:18:52.483Z,25
2017-01-30T08:20:01.437Z,25
2017-01-30T08:21:10.400Z,20
2017-01-30T08:22:19.354Z,20
2017-01-30T08:23:28.396Z,20
2017-01-30T08:24:37.354Z,25
2017-01-30T08:25:46.306Z,25
2017-01-30T08:26:55.470Z,25
2017-01-30T08:28:04.432Z,25
2017-01-30T08:29:13.391Z,25
2017-01-30T08:30:22.348Z,25
2017-01-30T08:31:31.411Z,30
2017-01-30T08:32:41.146Z,30
2017-01-30T08:33:51.104Z,30
2017-01-30T08:35:00.385Z,30
2017-01-30T08:36:09.841Z,35
2017-01-30T08:37:18.883Z,30
2017-01-30T08:38:29.120Z,30
2017-01-30T08:39:38.835Z,35
2017-01-30T08:40:47.791Z,35
2017-01-30T08:41:57.049Z,35
2017-01-30T08:43:06.091Z,40
2017-01-30T08:44:15.427Z,40
2017-01-30T08:45:25.676Z,40
2017-01-30T08:46:35.056Z,45
2017-01-30T08:47:44.199Z,45
2017-01-30T08:48:53.380Z,45
2017-01-30T08:50:02.341Z,45
2017-01-30T08:51:12.007Z,45
2017-01-30T08:52:21.378Z,40
2017-01-30T08:53:31.590Z,40
2017-01-30T08:54:40.789Z,45
2017-01-30T08:55:49.996Z,45
2017-01-30T08:56:58.953Z,50
2017-01-30T08:58:07.916Z,50
2017-01-30T08:59:16.877Z,50
2017-01-30T09:00:26.028Z,50
2017-01-30T09:01:36.139Z,55
2017-01-30T09:02:45.713Z,60
2017-01-30T09:03:54.820Z,65
2017-01-30T09:05:04.341Z,65
2017-01-30T09:06:13.880Z,60
2017-01-30T09:07:23.527Z,55
2017-01-30T09:08:32.481Z,50
2017-01-30T09:09:41.450Z,45
2017-01-30T09:10:50.406Z,40
2017-01-30T09:11:59.367Z,40
2017-01-30T09:13:08.326Z,40
2017-01-30T09:14:17.372Z,40
2017-01-30T09:15:27.178Z,45
2017-01-30T09:16:36.893Z,45
2017-01-30T09:17:46.713Z,50
2017-01-30T09:18:56.338Z,55
2017-01-30T09:20:05.649Z,55
2017-01-30T09:21:14.906Z,55
2017-01-30T09:22:25.241Z,50
2017-01-30T09:23:34.201Z,50
2017-01-30T09:24:43.606Z,50
2017-01-30T09:25:53.642Z,45
2017-01-30T09:27:03.144Z,45
2017-01-30T09:28:12.125Z,50
2017-01-30T09:29:21.808Z,50
2017-01-30T09:30:30.771Z,55
2017-01-30T09:31:39.733Z,55
2017-01-30T09:32:48.687Z,60
2017-01-30T09:33:57.651Z,60
2017-01-30T09:35:06.608Z,65
2017-01-30T09:36:15.564Z,70
2017-01-30T09:37:24.521Z,70
2017-01-30T09:38:33.483Z,70
2017-01-30T09:39:42.449Z,70
2017-01-30T09:40:51.405Z,70
2017-01-30T09:42:00.509Z,70
2017-01-30T09:43:10.143Z,70
2017-01-30T09:44:19.106Z,65
2017-01-30T09:45:28.828Z,65
2017-01-30T09:46:38.338Z,65
2017-01-30T09:47:47.298Z,65
2017-01-30T09:48:57.248Z,65
2017-01-30T09:50:06.217Z,65
2017-01-30T09:51:15.261Z,65
2017-01-30T09:52:24.304Z,65
2017-01-30T09:53:33.260Z,65
2017-01-30T09:54:42.215Z,65
2017-01-30T09:55:51.182Z,55
2017-01-30T09:57:00.139Z,55
2017-01-30T09:58:09.093Z,55
2017-01-30T09:59:18.050Z,60
2017-01-30T10:00:27.007Z,60
2017-01-30T10:01:36.378Z,60
2017-01-30T10:02:45.435Z,65
2017-01-30T10:03:54.396Z,65
2017-01-30T10:05:03.348Z,60
2017-01-30T10:06:12.316Z,65
2017-01-30T10:07:21.274Z,60
2017-01-30T10:08:30.237Z,55
2017-01-30T10:09:39.189Z,55
2017-01-30T10:10:48.149Z,50
2017-01-30T10:11:57.514Z,50
2017-01-30T10:13:06.476Z,50
2017-01-30T10:14:15.522Z,55
2017-01-30T10:15:24.886Z,55
2017-01-30T10:16:35.255Z,60
2017-01-30T10:17:44.803Z,60
2017-01-30T10:18:54.471Z,65
2017-01-30T10:20:03.781Z,65
2017-01-30T10:21:12.736Z,65
2017-01-30T10:22:21.690Z,65
2017-01-30T10:23:30.645Z,65
2017-01-30T10:24:39.612Z,60
2017-01-30T10:25:49.644Z,55
2017-01-30T10:26:59.631Z,55
2017-01-30T10:28:08.677Z,50
2017-01-30T10:29:18.311Z,50
2017-01-30T10:30:27.472Z,50
2017-01-30T10:31:36.430Z,45
2017-01-30T10:32:45.594Z,45
2017-01-30T10:33:54.797Z,45
2017-01-30T10:35:03.758Z,40
2017-01-30T10:36:12.716Z,35
2017-01-30T10:37:21.696Z,35
2017-01-30T10:38:30.650Z,30
2017-01-30T10:39:39.616Z,35
2017-01-30T10:40:48.665Z,40
2017-01-30T10:41:57.620Z,50
2017-01-30T10:43:06.604Z,55
2017-01-30T10:44:15.557Z,45
2017-01-30T10:45:24.509Z,45
2017-01-30T10:46:33.466Z,45
2017-01-30T10:47:42.421Z,45
2017-01-30T10:48:51.379Z,50
2017-01-30T10:50:00.737Z,55
2017-01-30T10:51:10.102Z,60
2017-01-30T10:52:19.143Z,60
2017-01-30T10:53:28.105Z,55
2017-01-30T10:54:37.063Z,55
2017-01-30T10:55:46.027Z,60
2017-01-30T10:56:54.994Z,60
2017-01-30T10:58:03.950Z,60
2017-01-30T10:59:12.914Z,60
2017-01-30T11:00:21.871Z,60
2017-01-30T11:01:30.826Z,60
2017-01-30T11:02:40.183Z,55
2017-01-30T11:03:49.150Z,55
2017-01-30T11:04:58.192Z,50
2017-01-30T11:06:07.569Z,45
2017-01-30T11:07:16.612Z,45
2017-01-30T11:08:25.975Z,45
2017-01-30T11:09:35.015Z,45
2017-01-30T11:10:43.989Z,50
2017-01-30T11:11:52.961Z,50
2017-01-30T11:13:02.003Z,50
2017-01-30T11:14:10.958Z,45
2017-01-30T11:15:20.335Z,50
2017-01-30T11:16:29.292Z,65
2017-01-30T11:17:38.265Z,75
2017-01-30T11:18:47.628Z,70
2017-01-30T11:19:56.673Z,65
2017-01-30T11:21:05.635Z,60
2017-01-30T11:22:14.679Z,60
2017-01-30T11:23:23.737Z,65
2017-01-30T11:24:32.812Z,65
2017-01-30T11:25:41.889Z,65
2017-01-30T11:26:51.023Z,55
2017-01-30T11:28:00.073Z,50
2017-01-30T11:29:09.059Z,55
2017-01-30T11:30:18.020Z,60
2017-01-30T11:31:26.977Z,55
2017-01-30T11:32:36.343Z,45
2017-01-30T11:33:45.385Z,40
2017-01-30T11:34:54.344Z,50
2017-01-30T11:36:03.704Z,55
2017-01-30T11:37:12.745Z,65
2017-01-30T11:38:21.700Z,80
2017-01-30T11:39:31.068Z,90
2017-01-30T11:40:40.032Z,95
2017-01-30T11:41:48.988Z,100
2017-01-30T11:42:57.946Z,100
2017-01-30T11:44:06.910Z,90
2017-01-30T11:45:15.867Z,90
2017-01-30T11:46:24.819Z,95
2017-01-30T11:47:33.786Z,95
2017-01-30T11:48:42.745Z,95
2017-01-30T11:49:51.720Z,95
2017-01-30T11:51:00.704Z,90
2017-01-30T11:52:09.661Z,90
2017-01-30T11:53:18.625Z,85
2017-01-30T11:54:27.582Z,85
2017-01-30T11:55:36.539Z,85
2017-01-30T11:56:45.520Z,80
2017-01-30T11:57:54.478Z,80
2017-01-30T11:59:03.434Z,80
2017-01-30T12:00:12.390Z,85
2017-01-30T12:01:21.348Z,90
2017-01-30T12:02:30.311Z,90
2017-01-30T12:03:39.269Z,95
2017-01-30T12:04:48.227Z,105
2017-01-30T12:05:57.273Z,110
2017-01-30T12:07:06.232Z,115
2017-01-30T12:08:15.186Z,115
2017-01-30T12:09:24.237Z,110
2017-01-30T12:10:33.200Z,105
2017-01-30T12:11:42.152Z,95
2017-01-30T12:12:51.132Z,95
2017-01-30T12:14:00.091Z,95
2017-01-30T12:15:09.054Z,95
2017-01-30T12:16:18.012Z,95
2017-01-30T12:17:27.381Z,100
2017-01-30T12:18:36.347Z,105
2017-01-30T12:19:45.307Z,105
2017-01-30T12:20:54.268Z,105
2017-01-30T12:22:03.632Z,105
2017-01-30T12:23:12.603Z,100
2017-01-30T12:24:21.559Z,90
2017-01-30T12:25:30.604Z,85
2017-01-30T12:26:39.558Z,75
2017-01-30T12:27:48.519Z,70
2017-01-30T12:28:57.478Z,65
2017-01-30T12:30:06.440Z,65
2017-01-30T12:31:15.897Z,60
2017-01-30T12:32:24.851Z,60
2017-01-30T12:33:33.806Z,60
2017-01-30T12:34:42.768Z,60
2017-01-30T12:35:52.132Z,65
2017-01-30T12:37:01.090Z,60
2017-01-30T12:38:10.056Z,55
2017-01-30T12:39:19.041Z,50
2017-01-30T12:40:27.998Z,45
2017-01-30T12:41:36.957Z,45
2017-01-30T12:42:45.915Z,45
2017-01-30T12:43:54.872Z,40
2017-01-30T12:45:03.829Z,35
2017-01-30T12:46:12.789Z,30
2017-01-30T12:47:21.752Z,30
2017-01-30T12:48:30.795Z,30
2017-01-30T12:49:39.751Z,25
2017-01-30T12:50:48.716Z,25
2017-01-30T12:51:57.755Z,25
2017-01-30T12:53:06.802Z,25
2017-01-30T12:54:15.768Z,20
2017-01-30T12:55:24.724Z,20
2017-01-30T12:56:33.771Z,20
2017-01-30T12:57:43.157Z,20
2017-01-30T12:58:52.516Z,20
2017-01-30T13:00:01.471Z,25
2017-01-30T13:01:10.429Z,25
2017-01-30T13:02:19.388Z,30
2017-01-30T13:03:28.348Z,30
2017-01-30T13:04:37.394Z,30
2017-01-30T13:05:46.349Z,30
2017-01-30T13:06:55.711Z,35
2017-01-30T13:08:04.673Z,35
2017-01-30T13:09:13.718Z,35
2017-01-30T13:10:22.674Z,35
2017-01-30T13:11:31.805Z,35
2017-01-30T13:12:40.765Z,35
2017-01-30T13:13:49.719Z,35
2017-01-30T13:14:58.679Z,35
2017-01-30T13:16:07.661Z,35
2017-01-30T13:17:16.729Z,30
2017-01-30T13:18:25.684Z,35
2017-01-30T13:19:34.635Z,35
2017-01-30T13:20:43.588Z,40
2017-01-30T13:21:52.546Z,35
2017-01-30T13:23:01.910Z,35
2017-01-30T13:24:10.865Z,35
2017-01-30T13:25:19.824Z,35
2017-01-30T13:26:28.780Z,35
2017-01-30T13:27:37.738Z,35
2017-01-30T13:28:46.689Z,35
2017-01-30T13:29:55.639Z,35
2017-01-30T13:31:04.682Z,30
2017-01-30T13:32:14.058Z,30
2017-01-30T13:33:23.012Z,30
2017-01-30T13:34:31.993Z,35
2017-01-30T13:35:41.738Z,30
2017-01-30T13:36:50.689Z,30
2017-01-30T13:37:59.652Z,30
2017-01-30T13:39:08.614Z,30
2017-01-30T13:40:17.568Z,30
2017-01-30T13:41:26.934Z,30
2017-01-30T13:42:35.890Z,30
2017-01-30T13:43:44.846Z,30
2017-01-30T13:44:53.802Z,25
2017-01-30T13:46:03.171Z,25
2017-01-30T13:47:12.124Z,30
2017-01-30T13:48:21.079Z,30
2017-01-30T13:49:30.040Z,30
2017-01-30T13:50:38.991Z,30
2017-01-30T13:51:48.043Z,30
2017-01-30T13:52:57.000Z,30
2017-01-30T13:54:05.949Z,30
2017-01-30T13:55:14.987Z,35
2017-01-30T13:56:23.942Z,40
2017-01-30T13:57:32.985Z,45
2017-01-30T13:58:41.950Z,45
2017-01-30T13:59:50.961Z,50
2017-01-30T14:00:59.919Z,50
2017-01-30T14:02:08.874Z,50
2017-01-30T14:03:17.917Z,50
2017-01-30T14:04:26.873Z,45
2017-01-30T14:05:35.915Z,40
2017-01-30T14:06:45.287Z,40
2017-01-30T14:07:54.243Z,40
2017-01-30T14:09:03.198Z,40
2017-01-30T14:10:12.241Z,40
2017-01-30T14:11:21.196Z,35
2017-01-30T14:12:30.155Z,30
2017-01-30T14:13:39.114Z,25
2017-01-30T14:14:48.065Z,25
2017-01-30T14:15:57.028Z,25
2017-01-30T14:17:05.986Z,25
2017-01-30T14:18:14.948Z,25
2017-01-30T14:19:23.904Z,25
2017-01-30T14:20:32.858Z,25
2017-01-30T14:21:41.815Z,25
2017-01-30T14:22:50.769Z,20
2017-01-30T14:23:59.731Z,20
2017-01-30T14:25:08.681Z,20
2017-01-30T14:26:17.639Z,20
2017-01-30T14:27:26.606Z,20
2017-01-30T14:28:36.615Z,20
2017-01-30T14:29:46.665Z,20
2017-01-30T14:30:55.624Z,15
2017-01-30T14:32:05.002Z,15
2017-01-30T14:33:13.956Z,15
2017-01-30T14:34:23.008Z,15
2017-01-30T14:35:32.700Z,15
2017-01-30T14:36:41.946Z,10
2017-01-30T14:37:53.349Z,10
2017-01-30T14:39:03.927Z,10
2017-01-30T14:40:14.165Z,10
2017-01-30T14:41:23.541Z,10
2017-01-30T14:42:32.497Z,10
2017-01-30T14:43:41.456Z,10
2017-01-30T14:44:50.421Z,10
2017-01-30T14:45:59.373Z,10
2017-01-30T14:47:08.329Z,10
2017-01-30T14:48:17.282Z,5
2017-01-30T14:49:26.321Z,5
2017-01-30T14:50:35.271Z,5
2017-01-30T14:51:44.230Z,5
2017-01-30T14:52:53.183Z,5
2017-01-30T14:54:02.142Z,5
2017-01-30T14:55:11.181Z,5
2017-01-30T14:56:20.138Z,5
2017-01-30T14:57:29.402Z,5
2017-01-30T14:58:38.354Z,5
2017-01-30T14:59:47.309Z,5
2017-01-30T15:00:56.966Z,5
2017-01-30T15:02:06.599Z,5
2017-01-30T15:03:16.580Z,10
2017-01-30T15:04:26.558Z,10
2017-01-30T15:05:35.884Z,10
2017-01-30T15:06:44.928Z,10
2017-01-30T15:07:54.732Z,10
2017-01-30T15:09:03.881Z,10
2017-01-30T15:10:12.837Z,5
2017-01-30T15:11:22.331Z,5
2017-01-30T15:12:31.890Z,5
2017-01-30T15:13:42.019Z,5
2017-01-30T15:14:50.977Z,5
2017-01-30T15:15:59.931Z,0
2017-01-30T15:17:09.814Z,0
2017-01-30T15:18:19.737Z,0
2017-01-30T15:19:28.727Z,0
2017-01-30T15:20:37.686Z,0
2017-01-30T15:21:47.321Z,0
2017-01-30T15:22:56.276Z,0
2017-01-30T15:24:05.971Z,0
2017-01-30T15:25:15.621Z,0
2017-01-30T15:26:25.282Z,0
2017-01-30T15:27:34.931Z,0
2017-01-30T15:28:43.895Z,0
2017-01-30T15:29:52.855Z,0
2017-01-30T15:31:01.809Z,0
2017-01-30T15:32:10.766Z,0
2017-01-30T15:33:20.125Z,0
2017-01-30T15:34:29.467Z,0
2017-01-30T15:35:38.948Z,0
2017-01-30T15:36:48.242Z,0
2017-01-30T15:37:57.200Z,0
2017-01-30T15:39:06.736Z,0
2017-01-30T15:40:15.695Z,0
2017-01-30T15:41:25.023Z,0
2017-01-30T15:42:33.987Z,0
2017-01-30T15:43:43.178Z,0
2017-01-30T15:44:52.218Z,0
2017-01-30T15:46:02.157Z,0
2017-01-30T15:47:13.667Z,0
2017-01-30T15:48:24.162Z,0
2017-01-30T15:49:34.087Z,0
2017-01-30T15:50:43.060Z,0
2017-01-30T15:51:52.017Z,0
2017-01-30T15:53:00.975Z,0
2017-01-30T15:54:09.969Z,0
2017-01-30T15:55:18.932Z,0
2017-01-30T15:56:27.902Z,0
2017-01-30T15:57:36.861Z,0
2017-01-30T15:58:45.817Z,0
2017-01-30T15:59:54.772Z,0
2017-01-30T16:01:03.737Z,0
2017-01-30T16:02:12.691Z,0
2017-01-30T16:03:21.647Z,0
2017-01-30T16:04:30.609Z,0
2017-01-30T16:05:39.565Z,0
2017-01-30T16:06:48.528Z,0
2017-01-30T16:07:57.490Z,0
2017-01-30T16:09:06.449Z,0
2017-01-30T16:10:15.412Z,0
2017-01-30T16:11:24.372Z,0
2017-01-30T16:12:33.366Z,0
2017-01-30T16:13:42.736Z,0
2017-01-30T16:14:51.689Z,0
2017-01-30T16:16:00.646Z,0
2017-01-30T16:17:09.601Z,0
2017-01-30T16:18:18.565Z,0
2017-01-30T16:19:27.524Z,0
2017-01-30T16:20:36.473Z,0
2017-01-30T16:21:45.432Z,0
2017-01-30T16:22:54.386Z,0
2017-01-30T16:24:03.342Z,0
2017-01-30T16:25:12.302Z,0
2017-01-30T16:26:21.251Z,0
2017-01-30T16:27:30.212Z,0
2017-01-30T16:28:39.161Z,0
2017-01-30T16:29:48.117Z,0
2017-01-30T16:30:57.141Z,0
2017-01-30T16:32:06.510Z,0
2017-01-30T16:33:15.889Z,0
2017-01-30T16:34:24.846Z,0
2017-01-30T16:35:33.889Z,0
2017-01-30T16:36:42.845Z,0
2017-01-30T16:37:51.819Z,0
2017-01-30T16:39:00.779Z,0
2017-01-30T16:40:09.742Z,0
2017-01-30T16:41:18.696Z,0
2017-01-30T16:42:27.654Z,0
2017-01-30T16:43:36.608Z,0
2017-01-30T16:44:45.670Z,0
2017-01-30T16:45:54.705Z,0
2017-01-30T16:47:03.664Z,0
2017-01-30T16:48:13.035Z,0
2017-01-30T16:49:21.991Z,0
2017-01-30T16:50:30.945Z,0
2017-01-30T16:51:40.310Z,0